Time,TemperatureF,DewpointF,PressureIn,WindDirection,WindDirectionDegrees,WindSpeedMPH,WindSpeedGustMPH,Humidity,HourlyPrecipIn,Conditions,Clouds,dailyrainin,SoftwareType,DateUTC
2013-02-13 00:02:00,36.0,23.0,-100.00,SW,221,14.0,23.0,58,0.00,,,0.00,,2013-02-13 07:02:00,
2013-02-13 00:11:00,36.0,23.0,-100.00,SW,221,14.0,23.0,58,0.00,,,0.00,,2013-02-13 07:11:00,
2013-02-13 00:41:00,35.0,23.0,-100.00,West,268,11.0,22.0,61,0.00,,,0.00,,2013-02-13 07:41:00,
2013-02-13 00:52:00,35.0,23.0,-100.00,West,268,11.0,22.0,61,0.00,,,0.00,,2013-02-13 07:52:00,
2013-02-13 01:01:00,35.0,23.0,-100.00,West,268,11.0,22.0,61,0.00,,,0.00,,2013-02-13 08:01:00,
2013-02-13 01:11:00,35.0,23.0,-100.00,West,268,11.0,22.0,61,0.00,,,0.00,,2013-02-13 08:11:00,
2013-02-13 01:43:00,37.0,23.0,-100.00,NW,310,3.0,13.0,56,0.00,,,0.00,,2013-02-13 08:43:00,
2013-02-13 01:52:00,37.0,23.0,-100.00,NW,310,3.0,13.0,56,0.00,,,0.00,,2013-02-13 08:52:00,
2013-02-13 02:01:00,37.0,23.0,-100.00,NW,310,3.0,13.0,56,0.00,,,0.00,,2013-02-13 09:01:00,
2013-02-13 02:11:00,37.0,23.0,-100.00,NW,310,3.0,13.0,56,0.00,,,0.00,,2013-02-13 09:11:00,
2013-02-13 02:41:00,32.0,25.0,-100.00,NNW,341,5.0,11.0,73,0.00,,,-99.99,,2013-02-13 09:41:00,
2013-02-13 02:52:00,32.0,25.0,-100.00,NNW,341,5.0,11.0,73,0.00,,,-99.99,,2013-02-13 09:52:00,
2013-02-13 03:01:00,32.0,25.0,-100.00,NNW,341,5.0,11.0,73,0.00,,,-99.99,,2013-02-13 10:01:00,
2013-02-13 03:11:00,32.0,25.0,-100.00,NNW,341,5.0,11.0,73,0.00,,,-99.99,,2013-02-13 10:11:00,
2013-02-13 03:41:00,32.0,24.0,-100.00,WNW,303,2.0,7.0,71,0.00,,,0.00,,2013-02-13 10:41:00,
2013-02-13 03:52:00,32.0,24.0,-100.00,WNW,303,2.0,7.0,71,0.00,,,0.00,,2013-02-13 10:52:00,
2013-02-13 04:01:00,32.0,24.0,-100.00,WNW,303,2.0,7.0,71,0.00,,,0.00,,2013-02-13 11:01:00,
2013-02-13 04:11:00,32.0,24.0,-100.00,WNW,303,2.0,7.0,71,0.00,,,0.00,,2013-02-13 11:11:00,
2013-02-13 04:42:00,37.0,25.0,-100.00,SW,226,13.0,19.0,61,0.00,,,0.00,,2013-02-13 11:42:00,
2013-02-13 04:52:00,37.0,25.0,-100.00,SW,226,13.0,19.0,61,0.00,,,0.00,,2013-02-13 11:52:00,
2013-02-13 05:02:00,37.0,25.0,-100.00,SW,226,13.0,19.0,61,0.00,,,0.00,,2013-02-13 12:02:00,
2013-02-13 05:11:00,37.0,25.0,-100.00,SW,226,13.0,19.0,61,0.00,,,0.00,,2013-02-13 12:11:00,
2013-02-13 05:42:00,38.0,24.0,-100.00,SSW,201,11.0,21.0,57,0.00,,,0.00,,2013-02-13 12:42:00,
2013-02-13 05:52:00,38.0,24.0,-100.00,SSW,201,11.0,21.0,57,0.00,,,0.00,,2013-02-13 12:52:00,
2013-02-13 06:02:00,38.0,24.0,-100.00,SSW,201,11.0,21.0,57,0.00,,,0.00,,2013-02-13 13:02:00,
2013-02-13 06:11:00,38.0,24.0,-100.00,SSW,201,11.0,21.0,57,0.00,,,0.00,,2013-02-13 13:11:00,
2013-02-13 06:52:00,38.0,22.0,-100.00,WSW,246,13.0,20.0,52,0.00,,,0.00,,2013-02-13 13:52:00,
2013-02-13 07:01:00,38.0,22.0,-100.00,WSW,246,13.0,20.0,52,0.00,,,0.00,,2013-02-13 14:01:00,
2013-02-13 07:11:00,38.0,22.0,-100.00,WSW,246,13.0,20.0,52,0.00,,,0.00,,2013-02-13 14:11:00,
2013-02-13 07:41:00,37.0,25.0,-100.00,SW,236,11.0,16.0,60,0.00,,,0.00,,2013-02-13 14:41:00,
2013-02-13 07:52:00,37.0,25.0,-100.00,SW,236,11.0,16.0,60,0.00,,,0.00,,2013-02-13 14:52:00,
2013-02-13 08:01:00,37.0,25.0,-100.00,SW,236,11.0,16.0,60,0.00,,,0.00,,2013-02-13 15:01:00,
2013-02-13 08:11:00,37.0,25.0,-100.00,SW,236,11.0,16.0,60,0.00,,,0.00,,2013-02-13 15:11:00,
2013-02-13 08:42:00,40.0,21.0,-100.00,NNW,327,5.0,15.0,46,0.00,,,0.00,,2013-02-13 15:42:00,
2013-02-13 08:52:00,40.0,21.0,-100.00,NNW,327,5.0,15.0,46,0.00,,,0.00,,2013-02-13 15:52:00,
2013-02-13 09:01:00,40.0,21.0,-100.00,NNW,327,5.0,15.0,46,0.00,,,0.00,,2013-02-13 16:01:00,
2013-02-13 09:11:00,40.0,21.0,-100.00,NNW,327,5.0,15.0,46,0.00,,,0.00,,2013-02-13 16:11:00,
2013-02-13 09:41:00,39.0,20.0,-100.00,WNW,298,11.0,25.0,46,0.00,,,-99.99,,2013-02-13 16:41:00,
2013-02-13 09:52:00,39.0,20.0,-100.00,WNW,298,11.0,25.0,46,0.00,,,-99.99,,2013-02-13 16:52:00,
2013-02-13 10:01:00,39.0,20.0,-100.00,WNW,298,11.0,25.0,46,0.00,,,-99.99,,2013-02-13 17:01:00,
2013-02-13 10:11:00,39.0,20.0,-100.00,WNW,298,11.0,25.0,46,0.00,,,-99.99,,2013-02-13 17:11:00,
2013-02-13 10:41:00,42.0,18.0,-100.00,NW,314,14.0,25.0,38,0.00,,,-99.99,,2013-02-13 17:41:00,
2013-02-13 10:52:00,42.0,18.0,-100.00,NW,314,14.0,25.0,38,0.00,,,-99.99,,2013-02-13 17:52:00,
2013-02-13 11:01:00,42.0,18.0,-100.00,NW,314,14.0,25.0,38,0.00,,,-99.99,,2013-02-13 18:01:00,
2013-02-13 11:11:00,42.0,18.0,-100.00,NW,314,14.0,25.0,38,0.00,,,-99.99,,2013-02-13 18:11:00,
2013-02-13 11:41:00,42.0,17.0,-100.00,NW,325,8.0,16.0,37,0.00,,,-99.99,,2013-02-13 18:41:00,
2013-02-13 11:52:00,42.0,17.0,-100.00,NW,325,8.0,16.0,37,0.00,,,-99.99,,2013-02-13 18:52:00,
2013-02-13 12:01:00,42.0,17.0,-100.00,NW,325,8.0,16.0,37,0.00,,,-99.99,,2013-02-13 19:01:00,
2013-02-13 12:11:00,42.0,17.0,-100.00,NW,325,8.0,16.0,37,0.00,,,-99.99,,2013-02-13 19:11:00,
2013-02-13 12:41:00,42.0,17.0,-100.00,NW,309,12.0,27.0,36,0.00,,,-99.99,,2013-02-13 19:41:00,
2013-02-13 12:52:00,42.0,17.0,-100.00,NW,309,12.0,27.0,36,0.00,,,-99.99,,2013-02-13 19:52:00,
2013-02-13 13:02:00,42.0,17.0,-100.00,NW,309,12.0,27.0,36,0.00,,,-99.99,,2013-02-13 20:02:00,
2013-02-13 13:11:00,42.0,17.0,-100.00,NW,309,12.0,27.0,36,0.00,,,-99.99,,2013-02-13 20:11:00,
2013-02-13 13:41:00,42.0,17.0,-100.00,NW,315,11.0,20.0,36,0.00,,,0.00,,2013-02-13 20:41:00,
2013-02-13 13:52:00,42.0,17.0,-100.00,NW,315,11.0,20.0,36,0.00,,,0.00,,2013-02-13 20:52:00,
2013-02-13 14:01:00,42.0,17.0,-100.00,NW,315,11.0,20.0,36,0.00,,,0.00,,2013-02-13 21:01:00,
2013-02-13 14:11:00,42.0,17.0,-100.00,NW,315,11.0,20.0,36,0.00,,,0.00,,2013-02-13 21:11:00,
2013-02-13 14:42:00,43.0,15.0,-100.00,WNW,293,7.0,20.0,33,0.00,,,0.00,,2013-02-13 21:42:00,
2013-02-13 14:52:00,43.0,15.0,-100.00,WNW,293,7.0,20.0,33,0.00,,,0.00,,2013-02-13 21:52:00,
2013-02-13 15:02:00,43.0,15.0,-100.00,WNW,293,7.0,20.0,33,0.00,,,0.00,,2013-02-13 22:02:00,
2013-02-13 15:11:00,43.0,15.0,-100.00,WNW,293,7.0,20.0,33,0.00,,,0.00,,2013-02-13 22:11:00,
2013-02-13 15:42:00,41.0,19.0,-100.00,SSE,148,3.0,11.0,41,0.00,,,0.00,,2013-02-13 22:42:00,
2013-02-13 15:52:00,41.0,19.0,-100.00,SSE,148,3.0,11.0,41,0.00,,,0.00,,2013-02-13 22:52:00,
2013-02-13 16:01:00,41.0,19.0,-100.00,SSE,148,3.0,11.0,41,0.00,,,0.00,,2013-02-13 23:01:00,
2013-02-13 16:11:00,41.0,19.0,-100.00,SSE,148,3.0,11.0,41,0.00,,,0.00,,2013-02-13 23:11:00,
2013-02-13 16:41:00,38.0,24.0,-100.00,ESE,102,12.0,21.0,58,0.00,,,0.00,,2013-02-13 23:41:00,
2013-02-13 16:52:00,38.0,24.0,-100.00,ESE,102,12.0,21.0,58,0.00,,,0.00,,2013-02-13 23:52:00,
2013-02-13 17:01:00,38.0,24.0,-100.00,ESE,102,12.0,21.0,58,0.00,,,0.00,,2013-02-14 00:01:00,
2013-02-13 17:11:00,38.0,24.0,-100.00,ESE,102,12.0,21.0,58,0.00,,,0.00,,2013-02-14 00:11:00,
2013-02-13 17:42:00,37.0,23.0,-100.00,East,84,10.0,16.0,58,0.00,,,0.00,,2013-02-14 00:42:00,
2013-02-13 17:52:00,37.0,23.0,-100.00,East,84,10.0,16.0,58,0.00,,,0.00,,2013-02-14 00:52:00,
2013-02-13 18:01:00,37.0,23.0,-100.00,East,84,10.0,16.0,58,0.00,,,0.00,,2013-02-14 01:01:00,
2013-02-13 18:11:00,37.0,23.0,-100.00,East,84,10.0,16.0,58,0.00,,,0.00,,2013-02-14 01:11:00,
2013-02-13 18:41:00,35.0,23.0,-100.00,NNE,29,11.0,20.0,62,0.00,,,0.00,,2013-02-14 01:41:00,
2013-02-13 18:51:00,35.0,23.0,-100.00,NNE,29,11.0,20.0,62,0.00,,,0.00,,2013-02-14 01:51:00,
2013-02-13 19:01:00,35.0,23.0,-100.00,NNE,29,11.0,20.0,62,0.00,,,0.00,,2013-02-14 02:01:00,
2013-02-13 19:11:00,35.0,23.0,-100.00,NNE,29,11.0,20.0,62,0.00,,,0.00,,2013-02-14 02:11:00,
2013-02-13 20:02:00,36.0,20.0,-100.00,North,349,6.0,10.0,52,0.00,,,0.00,,2013-02-14 03:02:00,
2013-02-13 20:11:00,36.0,20.0,-100.00,North,349,6.0,10.0,52,0.00,,,0.00,,2013-02-14 03:11:00,
2013-02-13 20:42:00,36.0,17.0,-100.00,North,355,4.0,11.0,45,0.00,,,0.00,,2013-02-14 03:42:00,
2013-02-13 20:52:00,36.0,17.0,-100.00,North,355,4.0,11.0,45,0.00,,,0.00,,2013-02-14 03:52:00,
2013-02-13 21:01:00,36.0,17.0,-100.00,North,355,4.0,11.0,45,0.00,,,0.00,,2013-02-14 04:01:00,
2013-02-13 21:11:00,36.0,17.0,-100.00,North,355,4.0,11.0,45,0.00,,,0.00,,2013-02-14 04:11:00,
2013-02-13 21:41:00,33.0,23.0,-100.00,East,95,9.0,18.0,67,0.00,,,0.00,,2013-02-14 04:41:00,
2013-02-13 21:52:00,33.0,23.0,-100.00,East,95,9.0,18.0,67,0.00,,,0.00,,2013-02-14 04:52:00,
2013-02-13 22:01:00,33.0,23.0,-100.00,East,95,9.0,18.0,67,0.00,,,0.00,,2013-02-14 05:01:00,
2013-02-13 22:11:00,33.0,23.0,-100.00,East,95,9.0,18.0,67,0.00,,,0.00,,2013-02-14 05:11:00,
2013-02-13 23:41:00,32.0,25.0,-100.00,NNE,30,9.0,15.0,76,0.00,,,0.00,,2013-02-14 06:41:00,
2013-02-13 23:52:00,32.0,25.0,-100.00,NNE,30,9.0,15.0,76,0.00,,,0.00,,2013-02-14 06:52:00,